Terminal Aerodrome Forecast
Issued by NWS Boise, ID

Current Version | Previous Version | Text Only | Print | Product List | Glossary On
Versions: 1 2 3 4 5 6 7 8 9 10 11 12 13 14 15 16 17 18 19 20 21 22 23 24 25
000
FTUS45 KBOI 301140
TAFBNO
TAF
KBNO 301140Z 3012/3112 27006KT P6SM SCT110 BKN200
     FM302100 23008KT P6SM VCSH SCT070 BKN110
     FM310600 VRB05KT P6SM OVC100=

USA.gov is the U.S. government's official web portal to all federal, state and local government web resources and services.